sensor_id;sensor_type;location;lat;lon;timestamp;pressure;altitude;pressure_sealevel;temperature;humidity
66430;BME280;53242;51.694;10.006;2023-07-20T00:00:41;99231.59;;;18.16;81.64
66430;BME280;53242;51.694;10.006;2023-07-20T00:03:13;99233.59;;;18.04;82.48
66430;BME280;53242;51.694;10.006;2023-07-20T00:05:41;99238.47;;;17.90;82.88
66430;BME280;53242;51.694;10.006;2023-07-20T00:08:03;99233.69;;;17.92;83.12
66430;BME280;53242;51.694;10.006;2023-07-20T00:10:26;99240.53;;;17.83;83.55
66430;BME280;53242;51.694;10.006;2023-07-20T00:12:48;99241.53;;;17.77;83.25
66430;BME280;53242;51.694;10.006;2023-07-20T00:15:11;99245.56;;;17.79;83.26
66430;BME280;53242;51.694;10.006;2023-07-20T00:17:33;99245.31;;;17.81;83.39
66430;BME280;53242;51.694;10.006;2023-07-20T00:19:55;99240.19;;;17.96;82.49
66430;BME280;53242;51.694;10.006;2023-07-20T00:22:18;99247.19;;;18.02;82.63
66430;BME280;53242;51.694;10.006;2023-07-20T00:24:40;99255.00;;;17.87;83.66
66430;BME280;53242;51.694;10.006;2023-07-20T00:27:03;99254.44;;;17.85;84.18
66430;BME280;53242;51.694;10.006;2023-07-20T00:29:26;99253.28;;;17.98;83.64
66430;BME280;53242;51.694;10.006;2023-07-20T00:31:49;99262.56;;;17.73;84.95
66430;BME280;53242;51.694;10.006;2023-07-20T00:34:11;99256.31;;;17.45;86.49
66430;BME280;53242;51.694;10.006;2023-07-20T00:36:33;99259.38;;;17.54;86.30
66430;BME280;53242;51.694;10.006;2023-07-20T00:38:58;99261.13;;;17.09;89.03
66430;BME280;53242;51.694;10.006;2023-07-20T00:41:20;99259.75;;;17.23;88.09
66430;BME280;53242;51.694;10.006;2023-07-20T00:43:42;99242.53;;;17.31;87.70
66430;BME280;53242;51.694;10.006;2023-07-20T00:46:05;99237.53;;;17.57;86.01
66430;BME280;53242;51.694;10.006;2023-07-20T00:48:29;99230.97;;;17.25;86.73
66430;BME280;53242;51.694;10.006;2023-07-20T00:50:52;99235.66;;;17.57;85.26
66430;BME280;53242;51.694;10.006;2023-07-20T00:53:14;99227.53;;;17.69;84.94
66430;BME280;53242;51.694;10.006;2023-07-20T00:55:37;99232.09;;;17.69;84.75
66430;BME280;53242;51.694;10.006;2023-07-20T00:58:00;99229.28;;;17.81;84.51
66430;BME280;53242;51.694;10.006;2023-07-20T01:00:22;99239.09;;;17.75;84.86
66430;BME280;53242;51.694;10.006;2023-07-20T01:02:47;99233.13;;;17.68;85.43
66430;BME280;53242;51.694;10.006;2023-07-20T01:05:09;99238.78;;;17.49;86.25
66430;BME280;53242;51.694;10.006;2023-07-20T01:07:37;99238.31;;;17.35;87.23
66430;BME280;53242;51.694;10.006;2023-07-20T01:10:07;99241.72;;;17.31;88.14
66430;BME280;53242;51.694;10.006;2023-07-20T01:12:47;99239.16;;;17.02;88.63
66430;BME280;53242;51.694;10.006;2023-07-20T01:15:10;99237.66;;;17.28;88.09
66430;BME280;53242;51.694;10.006;2023-07-20T01:17:33;99232.09;;;17.30;87.49
66430;BME280;53242;51.694;10.006;2023-07-20T01:19:56;99236.25;;;17.42;86.63
66430;BME280;53242;51.694;10.006;2023-07-20T01:22:47;99234.63;;;17.58;86.43
66430;BME280;53242;51.694;10.006;2023-07-20T01:30:08;99241.31;;;16.88;86.54
66430;BME280;53242;51.694;10.006;2023-07-20T01:32:34;99231.84;;;17.14;85.48
66430;BME280;53242;51.694;10.006;2023-07-20T01:34:59;99238.91;;;17.03;85.50
66430;BME280;53242;51.694;10.006;2023-07-20T01:37:24;99239.00;;;16.91;85.50
66430;BME280;53242;51.694;10.006;2023-07-20T01:39:50;99242.72;;;16.90;85.29
66430;BME280;53242;51.694;10.006;2023-07-20T01:42:13;99236.22;;;16.86;84.89
66430;BME280;53242;51.694;10.006;2023-07-20T01:44:37;99239.09;;;16.68;85.37
66430;BME280;53242;51.694;10.006;2023-07-20T01:46:59;99231.69;;;16.87;84.68
66430;BME280;53242;51.694;10.006;2023-07-20T01:49:22;99236.81;;;17.05;83.85
66430;BME280;53242;51.694;10.006;2023-07-20T01:51:44;99247.53;;;16.93;83.87
66430;BME280;53242;51.694;10.006;2023-07-20T01:54:06;99245.53;;;17.01;83.19
66430;BME280;53242;51.694;10.006;2023-07-20T01:56:29;99249.41;;;16.93;84.22
66430;BME280;53242;51.694;10.006;2023-07-20T01:58:51;99246.75;;;16.93;83.93
66430;BME280;53242;51.694;10.006;2023-07-20T02:01:14;99248.81;;;16.74;85.00
66430;BME280;53242;51.694;10.006;2023-07-20T02:03:36;99253.50;;;16.84;84.71
66430;BME280;53242;51.694;10.006;2023-07-20T02:05:59;99250.00;;;16.66;85.12
66430;BME280;53242;51.694;10.006;2023-07-20T02:08:21;99242.00;;;16.66;84.92
66430;BME280;53242;51.694;10.006;2023-07-20T02:10:48;99244.66;;;16.66;85.14
66430;BME280;53242;51.694;10.006;2023-07-20T02:13:10;99253.78;;;16.70;84.78
66430;BME280;53242;51.694;10.006;2023-07-20T02:15:33;99262.91;;;16.57;85.18
66430;BME280;53242;51.694;10.006;2023-07-20T02:17:55;99251.19;;;16.58;84.94
66430;BME280;53242;51.694;10.006;2023-07-20T02:20:17;99245.25;;;16.51;84.90
66430;BME280;53242;51.694;10.006;2023-07-20T02:22:41;99250.66;;;16.56;85.18
66430;BME280;53242;51.694;10.006;2023-07-20T02:25:05;99251.50;;;16.45;85.50
66430;BME280;53242;51.694;10.006;2023-07-20T02:27:28;99255.91;;;16.51;85.08
66430;BME280;53242;51.694;10.006;2023-07-20T02:29:50;99248.91;;;16.33;86.28
66430;BME280;53242;51.694;10.006;2023-07-20T02:32:13;99246.75;;;16.47;85.63
66430;BME280;53242;51.694;10.006;2023-07-20T02:34:35;99247.06;;;16.51;85.59
66430;BME280;53242;51.694;10.006;2023-07-20T02:36:58;99244.56;;;16.44;85.76
66430;BME280;53242;51.694;10.006;2023-07-20T02:39:23;99243.28;;;16.47;85.55
66430;BME280;53242;51.694;10.006;2023-07-20T02:41:45;99247.66;;;16.53;85.33
66430;BME280;53242;51.694;10.006;2023-07-20T02:44:08;99238.16;;;16.28;86.43
66430;BME280;53242;51.694;10.006;2023-07-20T02:46:30;99240.78;;;16.40;86.47
66430;BME280;53242;51.694;10.006;2023-07-20T02:48:54;99242.66;;;16.56;85.77
66430;BME280;53242;51.694;10.006;2023-07-20T02:51:17;99234.34;;;16.53;85.92
66430;BME280;53242;51.694;10.006;2023-07-20T02:53:39;99240.19;;;16.38;86.53
66430;BME280;53242;51.694;10.006;2023-07-20T02:56:01;99242.31;;;16.53;86.18
66430;BME280;53242;51.694;10.006;2023-07-20T02:58:24;99247.16;;;16.56;86.14
66430;BME280;53242;51.694;10.006;2023-07-20T03:00:46;99247.03;;;16.34;87.13
66430;BME280;53242;51.694;10.006;2023-07-20T03:03:09;99255.19;;;16.27;87.55
66430;BME280;53242;51.694;10.006;2023-07-20T03:05:31;99252.22;;;16.40;86.67
66430;BME280;53242;51.694;10.006;2023-07-20T03:07:55;99254.31;;;16.38;86.92
66430;BME280;53242;51.694;10.006;2023-07-20T03:10:17;99248.41;;;16.36;86.91
66430;BME280;53242;51.694;10.006;2023-07-20T03:12:40;99250.59;;;16.39;86.50
66430;BME280;53242;51.694;10.006;2023-07-20T03:15:03;99253.94;;;16.47;86.36
66430;BME280;53242;51.694;10.006;2023-07-20T03:17:26;99250.69;;;16.44;86.29
66430;BME280;53242;51.694;10.006;2023-07-20T03:19:48;99241.19;;;16.49;86.06
66430;BME280;53242;51.694;10.006;2023-07-20T03:22:11;99241.56;;;16.40;85.95
66430;BME280;53242;51.694;10.006;2023-07-20T03:24:34;99244.31;;;16.46;85.71
66430;BME280;53242;51.694;10.006;2023-07-20T03:26:56;99243.69;;;16.55;84.93
66430;BME280;53242;51.694;10.006;2023-07-20T03:29:19;99251.28;;;16.47;85.54
66430;BME280;53242;51.694;10.006;2023-07-20T03:31:42;99244.13;;;16.64;84.90
66430;BME280;53242;51.694;10.006;2023-07-20T03:34:05;99245.25;;;16.51;85.20
66430;BME280;53242;51.694;10.006;2023-07-20T03:36:28;99248.50;;;16.41;85.91
66430;BME280;53242;51.694;10.006;2023-07-20T03:38:50;99249.50;;;16.52;85.16
66430;BME280;53242;51.694;10.006;2023-07-20T03:41:13;99258.69;;;16.44;85.45
66430;BME280;53242;51.694;10.006;2023-07-20T03:43:38;99254.19;;;16.62;84.80
66430;BME280;53242;51.694;10.006;2023-07-20T03:46:00;99251.84;;;16.49;85.36
66430;BME280;53242;51.694;10.006;2023-07-20T03:48:24;99249.00;;;16.38;85.91
66430;BME280;53242;51.694;10.006;2023-07-20T03:50:47;99248.53;;;16.58;85.22
66430;BME280;53242;51.694;10.006;2023-07-20T03:53:09;99245.00;;;16.53;85.22
66430;BME280;53242;51.694;10.006;2023-07-20T03:55:32;99243.09;;;16.36;86.45
66430;BME280;53242;51.694;10.006;2023-07-20T03:57:54;99245.84;;;16.41;86.28
66430;BME280;53242;51.694;10.006;2023-07-20T04:00:17;99256.84;;;16.45;86.25
66430;BME280;53242;51.694;10.006;2023-07-20T04:02:40;99247.22;;;16.44;86.06
66430;BME280;53242;51.694;10.006;2023-07-20T04:05:03;99259.66;;;16.38;86.52
66430;BME280;53242;51.694;10.006;2023-07-20T04:07:25;99255.72;;;16.41;86.30
66430;BME280;53242;51.694;10.006;2023-07-20T04:09:48;99251.50;;;16.16;87.28
66430;BME280;53242;51.694;10.006;2023-07-20T04:12:10;99251.22;;;16.30;86.39
66430;BME280;53242;51.694;10.006;2023-07-20T04:14:33;99258.03;;;16.37;86.92
66430;BME280;53242;51.694;10.006;2023-07-20T04:16:55;99263.13;;;16.39;86.74
66430;BME280;53242;51.694;10.006;2023-07-20T04:19:18;99255.06;;;16.51;86.16
66430;BME280;53242;51.694;10.006;2023-07-20T04:21:40;99251.97;;;16.42;86.52
66430;BME280;53242;51.694;10.006;2023-07-20T04:24:03;99251.00;;;16.31;86.85
66430;BME280;53242;51.694;10.006;2023-07-20T04:26:27;99254.63;;;16.42;86.32
66430;BME280;53242;51.694;10.006;2023-07-20T04:28:49;99253.03;;;16.41;86.35
66430;BME280;53242;51.694;10.006;2023-07-20T04:31:25;99256.75;;;16.40;86.37
66430;BME280;53242;51.694;10.006;2023-07-20T04:33:47;99258.72;;;16.33;87.23
66430;BME280;53242;51.694;10.006;2023-07-20T04:36:10;99261.94;;;16.47;86.55
66430;BME280;53242;51.694;10.006;2023-07-20T04:38:33;99261.84;;;16.41;86.59
66430;BME280;53242;51.694;10.006;2023-07-20T04:41:13;99259.69;;;16.55;85.96
66430;BME280;53242;51.694;10.006;2023-07-20T04:43:43;99257.03;;;16.72;85.49
66430;BME280;53242;51.694;10.006;2023-07-20T04:46:06;99261.31;;;16.56;85.89
66430;BME280;53242;51.694;10.006;2023-07-20T04:48:30;99263.06;;;16.51;86.39
66430;BME280;53242;51.694;10.006;2023-07-20T04:50:53;99245.41;;;16.62;85.94
66430;BME280;53242;51.694;10.006;2023-07-20T04:53:16;99256.09;;;16.79;85.16
66430;BME280;53242;51.694;10.006;2023-07-20T04:55:40;99259.63;;;16.67;85.32
66430;BME280;53242;51.694;10.006;2023-07-20T04:58:03;99262.22;;;16.79;85.13
66430;BME280;53242;51.694;10.006;2023-07-20T05:00:27;99259.88;;;16.83;85.12
66430;BME280;53242;51.694;10.006;2023-07-20T05:02:50;99260.19;;;16.69;85.85
66430;BME280;53242;51.694;10.006;2023-07-20T05:05:12;99259.03;;;16.65;85.85
66430;BME280;53242;51.694;10.006;2023-07-20T05:07:35;99263.72;;;16.58;86.09
66430;BME280;53242;51.694;10.006;2023-07-20T05:09:58;99264.28;;;16.60;86.14
66430;BME280;53242;51.694;10.006;2023-07-20T05:12:20;99258.34;;;16.70;85.73
66430;BME280;53242;51.694;10.006;2023-07-20T05:14:42;99260.31;;;16.63;86.29
66430;BME280;53242;51.694;10.006;2023-07-20T05:17:05;99268.56;;;16.61;86.49
66430;BME280;53242;51.694;10.006;2023-07-20T05:19:27;99263.44;;;16.42;86.87
66430;BME280;53242;51.694;10.006;2023-07-20T05:21:50;99265.25;;;16.54;86.56
66430;BME280;53242;51.694;10.006;2023-07-20T05:24:12;99269.91;;;16.47;86.82
66430;BME280;53242;51.694;10.006;2023-07-20T05:26:35;99266.81;;;16.38;87.63
66430;BME280;53242;51.694;10.006;2023-07-20T05:28:57;99264.59;;;16.47;87.49
66430;BME280;53242;51.694;10.006;2023-07-20T05:31:19;99261.44;;;16.50;87.00
66430;BME280;53242;51.694;10.006;2023-07-20T05:33:42;99255.16;;;16.56;86.96
66430;BME280;53242;51.694;10.006;2023-07-20T05:36:04;99258.66;;;16.73;86.31
66430;BME280;53242;51.694;10.006;2023-07-20T05:38:27;99256.78;;;16.74;86.59
66430;BME280;53242;51.694;10.006;2023-07-20T05:40:49;99263.47;;;16.59;86.97
66430;BME280;53242;51.694;10.006;2023-07-20T05:43:12;99262.00;;;16.52;87.40
66430;BME280;53242;51.694;10.006;2023-07-20T05:45:34;99266.94;;;16.60;87.09
66430;BME280;53242;51.694;10.006;2023-07-20T05:47:57;99267.94;;;16.71;86.79
66430;BME280;53242;51.694;10.006;2023-07-20T05:50:19;99271.25;;;16.78;86.37
66430;BME280;53242;51.694;10.006;2023-07-20T05:52:42;99261.00;;;16.70;86.87
66430;BME280;53242;51.694;10.006;2023-07-20T05:55:05;99265.56;;;16.57;87.17
66430;BME280;53242;51.694;10.006;2023-07-20T05:57:27;99266.75;;;16.79;86.17
66430;BME280;53242;51.694;10.006;2023-07-20T05:59:50;99267.19;;;16.58;87.13
66430;BME280;53242;51.694;10.006;2023-07-20T06:02:12;99272.91;;;16.50;87.80
66430;BME280;53242;51.694;10.006;2023-07-20T06:04:35;99272.44;;;16.53;87.51
66430;BME280;53242;51.694;10.006;2023-07-20T06:06:57;99272.06;;;16.62;87.32
66430;BME280;53242;51.694;10.006;2023-07-20T06:09:19;99274.56;;;16.68;87.04
66430;BME280;53242;51.694;10.006;2023-07-20T06:11:42;99277.28;;;16.56;87.81
66430;BME280;53242;51.694;10.006;2023-07-20T06:14:05;99276.19;;;16.69;87.23
66430;BME280;53242;51.694;10.006;2023-07-20T06:16:27;99273.13;;;16.77;87.19
66430;BME280;53242;51.694;10.006;2023-07-20T06:18:50;99276.44;;;16.85;86.70
66430;BME280;53242;51.694;10.006;2023-07-20T06:21:12;99276.28;;;16.74;87.24
66430;BME280;53242;51.694;10.006;2023-07-20T06:23:34;99276.38;;;16.80;87.16
66430;BME280;53242;51.694;10.006;2023-07-20T06:25:57;99280.72;;;16.86;86.84
66430;BME280;53242;51.694;10.006;2023-07-20T06:28:19;99284.81;;;16.76;87.34
66430;BME280;53242;51.694;10.006;2023-07-20T06:30:42;99281.19;;;16.83;86.89
66430;BME280;53242;51.694;10.006;2023-07-20T06:33:04;99284.75;;;16.88;87.08
66430;BME280;53242;51.694;10.006;2023-07-20T06:35:26;99286.63;;;16.88;87.29
66430;BME280;53242;51.694;10.006;2023-07-20T06:37:49;99295.03;;;16.80;88.12
66430;BME280;53242;51.694;10.006;2023-07-20T06:40:11;99295.16;;;16.73;88.59
66430;BME280;53242;51.694;10.006;2023-07-20T06:42:34;99298.28;;;16.53;89.29
66430;BME280;53242;51.694;10.006;2023-07-20T06:44:57;99303.34;;;16.54;89.96
66430;BME280;53242;51.694;10.006;2023-07-20T06:47:20;99300.56;;;16.32;91.22
66430;BME280;53242;51.694;10.006;2023-07-20T06:49:42;99310.56;;;16.42;90.80
66430;BME280;53242;51.694;10.006;2023-07-20T06:52:05;99309.19;;;16.39;90.74
66430;BME280;53242;51.694;10.006;2023-07-20T06:54:27;99300.38;;;16.10;90.58
66430;BME280;53242;51.694;10.006;2023-07-20T06:56:50;99307.34;;;16.40;88.63
66430;BME280;53242;51.694;10.006;2023-07-20T06:59:13;99319.13;;;16.15;89.03
66430;BME280;53242;51.694;10.006;2023-07-20T07:01:35;99321.66;;;16.22;89.74
66430;BME280;53242;51.694;10.006;2023-07-20T07:03:57;99326.78;;;16.11;89.22
66430;BME280;53242;51.694;10.006;2023-07-20T07:06:20;99330.50;;;15.99;89.42
66430;BME280;53242;51.694;10.006;2023-07-20T07:08:43;99335.91;;;16.16;88.75
66430;BME280;53242;51.694;10.006;2023-07-20T07:11:06;99340.66;;;16.02;88.95
66430;BME280;53242;51.694;10.006;2023-07-20T07:13:29;99341.00;;;16.05;88.39
66430;BME280;53242;51.694;10.006;2023-07-20T07:15:52;99337.78;;;15.91;88.89
66430;BME280;53242;51.694;10.006;2023-07-20T07:18:15;99349.47;;;15.67;89.05
66430;BME280;53242;51.694;10.006;2023-07-20T07:20:37;99348.19;;;15.69;89.00
66430;BME280;53242;51.694;10.006;2023-07-20T07:22:59;99346.94;;;15.84;87.77
66430;BME280;53242;51.694;10.006;2023-07-20T07:25:23;99349.47;;;15.67;88.52
66430;BME280;53242;51.694;10.006;2023-07-20T07:27:45;99347.34;;;15.69;88.08
66430;BME280;53242;51.694;10.006;2023-07-20T07:30:08;99341.84;;;15.94;87.95
66430;BME280;53242;51.694;10.006;2023-07-20T07:32:30;99356.78;;;15.83;88.24
66430;BME280;53242;51.694;10.006;2023-07-20T07:34:53;99352.00;;;15.73;88.14
66430;BME280;53242;51.694;10.006;2023-07-20T07:37:15;99358.41;;;15.84;87.57
66430;BME280;53242;51.694;10.006;2023-07-20T07:39:39;99362.31;;;15.93;87.21
66430;BME280;53242;51.694;10.006;2023-07-20T07:42:02;99362.69;;;15.97;87.21
66430;BME280;53242;51.694;10.006;2023-07-20T07:44:24;99366.34;;;16.20;86.22
66430;BME280;53242;51.694;10.006;2023-07-20T07:46:47;99369.25;;;16.06;86.86
66430;BME280;53242;51.694;10.006;2023-07-20T07:49:09;99370.06;;;16.07;86.83
66430;BME280;53242;51.694;10.006;2023-07-20T07:51:31;99371.66;;;16.20;86.53
66430;BME280;53242;51.694;10.006;2023-07-20T07:53:54;99364.28;;;16.10;87.26
66430;BME280;53242;51.694;10.006;2023-07-20T07:56:16;99360.91;;;16.15;86.67
66430;BME280;53242;51.694;10.006;2023-07-20T07:58:39;99356.22;;;16.34;85.64
66430;BME280;53242;51.694;10.006;2023-07-20T08:01:02;99363.38;;;16.45;85.38
66430;BME280;53242;51.694;10.006;2023-07-20T08:03:25;99363.97;;;16.76;84.45
66430;BME280;53242;51.694;10.006;2023-07-20T08:05:48;99358.72;;;16.81;83.98
66430;BME280;53242;51.694;10.006;2023-07-20T08:08:10;99370.66;;;16.50;85.11
66430;BME280;53242;51.694;10.006;2023-07-20T08:10:33;99370.28;;;16.58;85.74
66430;BME280;53242;51.694;10.006;2023-07-20T08:12:55;99372.31;;;16.39;86.86
66430;BME280;53242;51.694;10.006;2023-07-20T08:15:18;99373.97;;;16.28;86.81
66430;BME280;53242;51.694;10.006;2023-07-20T08:17:41;99370.19;;;16.53;86.59
66430;BME280;53242;51.694;10.006;2023-07-20T08:20:04;99371.69;;;16.60;85.19
66430;BME280;53242;51.694;10.006;2023-07-20T08:22:28;99377.41;;;16.40;85.44
66430;BME280;53242;51.694;10.006;2023-07-20T08:24:50;99385.84;;;16.49;85.96
66430;BME280;53242;51.694;10.006;2023-07-20T08:27:13;99387.47;;;16.50;85.41
66430;BME280;53242;51.694;10.006;2023-07-20T08:29:36;99394.44;;;16.27;85.76
66430;BME280;53242;51.694;10.006;2023-07-20T08:31:58;99389.09;;;16.39;84.58
66430;BME280;53242;51.694;10.006;2023-07-20T08:34:21;99395.16;;;16.11;84.94
66430;BME280;53242;51.694;10.006;2023-07-20T08:36:43;99398.28;;;16.20;85.08
66430;BME280;53242;51.694;10.006;2023-07-20T08:39:06;99400.22;;;16.36;83.60
66430;BME280;53242;51.694;10.006;2023-07-20T08:41:30;99397.66;;;16.41;83.73
66430;BME280;53242;51.694;10.006;2023-07-20T08:43:54;99403.59;;;16.43;84.01
66430;BME280;53242;51.694;10.006;2023-07-20T08:46:17;99398.56;;;16.59;83.17
66430;BME280;53242;51.694;10.006;2023-07-20T08:48:41;99398.25;;;16.43;83.74
66430;BME280;53242;51.694;10.006;2023-07-20T08:51:04;99401.13;;;16.54;83.37
66430;BME280;53242;51.694;10.006;2023-07-20T08:53:27;99408.84;;;16.67;83.04
66430;BME280;53242;51.694;10.006;2023-07-20T08:55:51;99408.50;;;16.64;83.06
66430;BME280;53242;51.694;10.006;2023-07-20T08:58:15;99405.75;;;16.47;83.63
66430;BME280;53242;51.694;10.006;2023-07-20T09:00:38;99408.53;;;16.52;84.37
66430;BME280;53242;51.694;10.006;2023-07-20T09:03:02;99411.69;;;16.37;85.06
66430;BME280;53242;51.694;10.006;2023-07-20T09:05:25;99414.53;;;16.59;84.61
66430;BME280;53242;51.694;10.006;2023-07-20T09:07:47;99416.00;;;16.79;83.88
66430;BME280;53242;51.694;10.006;2023-07-20T09:10:10;99418.06;;;16.76;84.65
66430;BME280;53242;51.694;10.006;2023-07-20T09:12:40;99414.38;;;17.06;82.66
66430;BME280;53242;51.694;10.006;2023-07-20T09:15:03;99416.69;;;17.15;82.99
66430;BME280;53242;51.694;10.006;2023-07-20T09:17:26;99415.34;;;17.46;81.22
66430;BME280;53242;51.694;10.006;2023-07-20T09:19:49;99423.50;;;17.73;80.66
66430;BME280;53242;51.694;10.006;2023-07-20T09:22:11;99418.97;;;18.08;79.40
66430;BME280;53242;51.694;10.006;2023-07-20T09:24:34;99417.28;;;17.68;79.65
66430;BME280;53242;51.694;10.006;2023-07-20T09:26:56;99421.00;;;17.50;80.05
66430;BME280;53242;51.694;10.006;2023-07-20T09:29:19;99419.38;;;17.66;79.60
66430;BME280;53242;51.694;10.006;2023-07-20T09:31:42;99427.41;;;17.83;79.33
66430;BME280;53242;51.694;10.006;2023-07-20T09:34:04;99430.22;;;17.76;78.12
66430;BME280;53242;51.694;10.006;2023-07-20T09:36:27;99430.03;;;18.17;76.25
66430;BME280;53242;51.694;10.006;2023-07-20T09:38:50;99421.19;;;18.55;74.30
66430;BME280;53242;51.694;10.006;2023-07-20T09:41:14;99419.44;;;18.88;72.88
66430;BME280;53242;51.694;10.006;2023-07-20T09:43:37;99423.03;;;18.99;72.89
66430;BME280;53242;51.694;10.006;2023-07-20T09:46:00;99433.22;;;18.80;72.18
66430;BME280;53242;51.694;10.006;2023-07-20T09:48:24;99427.41;;;19.38;69.85
66430;BME280;53242;51.694;10.006;2023-07-20T09:50:51;99427.78;;;19.19;69.25
66430;BME280;53242;51.694;10.006;2023-07-20T09:53:14;99433.75;;;18.55;72.58
66430;BME280;53242;51.694;10.006;2023-07-20T09:55:37;99424.44;;;19.07;69.08
66430;BME280;53242;51.694;10.006;2023-07-20T09:58:00;99426.19;;;19.51;66.94
66430;BME280;53242;51.694;10.006;2023-07-20T10:00:23;99426.72;;;19.48;67.75
66430;BME280;53242;51.694;10.006;2023-07-20T10:02:46;99429.59;;;19.74;65.35
66430;BME280;53242;51.694;10.006;2023-07-20T10:05:09;99427.59;;;19.26;66.37
66430;BME280;53242;51.694;10.006;2023-07-20T10:07:35;99426.78;;;19.58;65.70
66430;BME280;53242;51.694;10.006;2023-07-20T10:09:59;99430.81;;;19.28;67.53
66430;BME280;53242;51.694;10.006;2023-07-20T10:12:25;99427.22;;;19.17;68.16
66430;BME280;53242;51.694;10.006;2023-07-20T10:17:27;99440.13;;;18.76;67.62
66430;BME280;53242;51.694;10.006;2023-07-20T10:19:50;99432.56;;;18.68;67.05
66430;BME280;53242;51.694;10.006;2023-07-20T10:22:16;99434.00;;;19.25;65.35
66430;BME280;53242;51.694;10.006;2023-07-20T10:24:45;99426.50;;;19.54;63.79
66430;BME280;53242;51.694;10.006;2023-07-20T10:27:08;99427.97;;;19.72;62.70
66430;BME280;53242;51.694;10.006;2023-07-20T10:29:31;99430.66;;;19.72;62.82
66430;BME280;53242;51.694;10.006;2023-07-20T10:31:55;99429.38;;;19.80;61.26
66430;BME280;53242;51.694;10.006;2023-07-20T10:34:18;99417.44;;;19.93;60.75
66430;BME280;53242;51.694;10.006;2023-07-20T10:36:44;99419.78;;;20.32;59.36
66430;BME280;53242;51.694;10.006;2023-07-20T10:39:24;99421.41;;;20.38;59.29
66430;BME280;53242;51.694;10.006;2023-07-20T10:41:47;99421.53;;;20.64;58.99
66430;BME280;53242;51.694;10.006;2023-07-20T10:44:09;99430.81;;;20.41;57.33
66430;BME280;53242;51.694;10.006;2023-07-20T10:49:04;99411.84;;;20.58;55.76
66430;BME280;53242;51.694;10.006;2023-07-20T10:51:27;99418.22;;;20.36;56.43
66430;BME280;53242;51.694;10.006;2023-07-20T10:53:49;99417.19;;;20.53;54.23
66430;BME280;53242;51.694;10.006;2023-07-20T10:56:13;99418.13;;;20.84;54.36
66430;BME280;53242;51.694;10.006;2023-07-20T10:58:36;99416.75;;;20.72;52.78
66430;BME280;53242;51.694;10.006;2023-07-20T11:01:03;99419.25;;;20.99;53.96
66430;BME280;53242;51.694;10.006;2023-07-20T11:03:30;99420.84;;;20.90;50.99
66430;BME280;53242;51.694;10.006;2023-07-20T11:05:53;99418.09;;;20.74;53.16
66430;BME280;53242;51.694;10.006;2023-07-20T11:08:39;99419.72;;;20.75;51.44
66430;BME280;53242;51.694;10.006;2023-07-20T11:11:29;99417.09;;;20.91;50.98
66430;BME280;53242;51.694;10.006;2023-07-20T11:16:34;99407.41;;;20.90;50.49
66430;BME280;53242;51.694;10.006;2023-07-20T11:18:57;99411.44;;;20.92;50.43
66430;BME280;53242;51.694;10.006;2023-07-20T11:21:20;99401.31;;;21.30;49.89
66430;BME280;53242;51.694;10.006;2023-07-20T11:23:43;99403.72;;;21.16;48.52
66430;BME280;53242;51.694;10.006;2023-07-20T11:26:05;99405.34;;;21.17;49.84
66430;BME280;53242;51.694;10.006;2023-07-20T11:28:30;99412.06;;;21.46;49.54
66430;BME280;53242;51.694;10.006;2023-07-20T11:30:52;99400.22;;;21.16;48.49
66430;BME280;53242;51.694;10.006;2023-07-20T11:33:16;99404.63;;;20.64;50.07
66430;BME280;53242;51.694;10.006;2023-07-20T11:35:45;99403.13;;;20.89;48.41
66430;BME280;53242;51.694;10.006;2023-07-20T11:38:09;99407.16;;;21.01;50.27
66430;BME280;53242;51.694;10.006;2023-07-20T11:40:31;99411.88;;;20.68;49.71
66430;BME280;53242;51.694;10.006;2023-07-20T11:42:53;99414.28;;;20.60;49.13
66430;BME280;53242;51.694;10.006;2023-07-20T11:45:16;99422.22;;;20.34;50.25
66430;BME280;53242;51.694;10.006;2023-07-20T11:47:40;99409.56;;;20.24;49.87
66430;BME280;53242;51.694;10.006;2023-07-20T11:50:04;99410.34;;;20.73;49.32
66430;BME280;53242;51.694;10.006;2023-07-20T11:52:27;99409.06;;;21.01;48.58
66430;BME280;53242;51.694;10.006;2023-07-20T11:54:50;99399.69;;;21.19;47.29
66430;BME280;53242;51.694;10.006;2023-07-20T11:57:16;99401.03;;;21.22;47.98
66430;BME280;53242;51.694;10.006;2023-07-20T11:59:52;99405.88;;;21.50;46.68
66430;BME280;53242;51.694;10.006;2023-07-20T12:02:15;99405.59;;;21.78;46.62
66430;BME280;53242;51.694;10.006;2023-07-20T12:04:38;99398.66;;;21.56;46.34
66430;BME280;53242;51.694;10.006;2023-07-20T12:07:01;99396.75;;;21.31;47.79
66430;BME280;53242;51.694;10.006;2023-07-20T12:09:23;99403.72;;;21.22;48.26
66430;BME280;53242;51.694;10.006;2023-07-20T12:11:49;99400.97;;;20.85;47.73
66430;BME280;53242;51.694;10.006;2023-07-20T12:14:11;99408.56;;;20.35;49.27
66430;BME280;53242;51.694;10.006;2023-07-20T12:16:35;99407.88;;;20.13;49.97
66430;BME280;53242;51.694;10.006;2023-07-20T12:19:04;99403.75;;;20.43;48.01
66430;BME280;53242;51.694;10.006;2023-07-20T12:21:28;99400.16;;;20.85;48.44
66430;BME280;53242;51.694;10.006;2023-07-20T12:23:50;99400.22;;;21.47;47.29
66430;BME280;53242;51.694;10.006;2023-07-20T12:26:14;99399.69;;;21.50;46.07
66430;BME280;53242;51.694;10.006;2023-07-20T12:28:41;99395.97;;;21.66;45.75
66430;BME280;53242;51.694;10.006;2023-07-20T12:31:04;99394.00;;;22.08;44.25
66430;BME280;53242;51.694;10.006;2023-07-20T12:33:26;99398.88;;;21.75;44.50
66430;BME280;53242;51.694;10.006;2023-07-20T12:35:49;99393.78;;;21.84;43.82
66430;BME280;53242;51.694;10.006;2023-07-20T12:38:12;99382.25;;;21.78;45.66
66430;BME280;53242;51.694;10.006;2023-07-20T12:40:34;99393.28;;;21.66;45.01
66430;BME280;53242;51.694;10.006;2023-07-20T12:42:57;99390.53;;;21.10;45.54